Time;durP1;ratioP1;P1;durP2;ratioP2;P2;SDS_P1;SDS_P2;PMS_P1;PMS_P2;Temp;Humidity;BMP_temperature;BMP_pressure;BME280_temperature;BME280_humidity;BME280_pressure;Samples;Min_cycle;Max_cycle;Signal;HPM_P1;HPM_P2
2022/03/12 00:00:09;;;;;;;15.47;10.00;;;4.60;1.00;;;;;;5134614;27;20450;-68
2022/03/12 00:02:37;;;;;;;15.97;9.10;;;4.60;1.00;;;;;;5133937;27;20443;-67
2022/03/12 00:05:07;;;;;;;15.10;9.53;;;4.70;1.00;;;;;;5134765;27;20444;-67
2022/03/12 00:07:35;;;;;;;15.40;9.80;;;4.70;1.00;;;;;;5134398;27;20786;-68
2022/03/12 00:10:02;;;;;;;15.10;11.00;;;4.70;1.00;;;;;;5134401;27;20864;-68
2022/03/12 00:12:37;;;;;;;17.67;10.30;;;4.50;1.00;;;;;;5133532;27;20513;-68
2022/03/12 00:15:09;;;;;;;11.87;9.10;;;4.30;1.00;;;;;;5134825;27;20444;-68
2022/03/12 00:17:36;;;;;;;14.57;9.10;;;4.40;1.00;;;;;;5133645;27;20800;-68
2022/03/12 00:20:12;;;;;;;14.73;9.20;;;4.50;1.00;;;;;;5120900;27;20480;-68
2022/03/12 00:22:41;;;;;;;15.40;8.93;;;4.40;1.00;;;;;;5133674;27;20496;-68
2022/03/12 00:25:10;;;;;;;16.03;9.47;;;4.40;1.00;;;;;;5134050;27;20457;-68
2022/03/12 00:27:39;;;;;;;14.73;9.80;;;4.30;1.00;;;;;;5132888;27;20445;-68
2022/03/12 00:30:09;;;;;;;16.80;9.50;;;4.30;1.00;;;;;;5134233;27;20451;-68
2022/03/12 00:32:37;;;;;;;12.57;9.13;;;4.50;1.00;;;;;;5133679;27;20514;-68
2022/03/12 00:35:05;;;;;;;15.03;9.53;;;4.50;1.00;;;;;;5133956;27;20939;-67
2022/03/12 00:37:33;;;;;;;10.40;7.93;;;4.50;1.00;;;;;;5133390;27;20466;-69
2022/03/12 00:40:00;;;;;;;17.97;9.73;;;4.70;1.00;;;;;;5133908;27;20492;-68
2022/03/12 00:42:27;;;;;;;12.57;9.40;;;4.80;1.00;;;;;;5132698;27;20534;-67
2022/03/12 00:44:54;;;;;;;14.73;9.57;;;5.10;1.00;;;;;;5133731;27;20556;-67
2022/03/12 00:47:22;;;;;;;16.87;9.83;;;5.00;1.00;;;;;;5133955;27;20460;-68
2022/03/12 00:49:50;;;;;;;10.23;8.30;;;5.00;1.00;;;;;;5132582;27;20469;-68
2022/03/12 00:52:17;;;;;;;19.53;12.83;;;4.90;1.00;;;;;;5132713;27;20539;-68
2022/03/12 00:54:44;;;;;;;22.53;9.70;;;4.80;1.00;;;;;;5132503;27;21080;-68
2022/03/12 00:57:12;;;;;;;13.50;10.83;;;4.70;1.00;;;;;;5133289;27;20887;-67
2022/03/12 00:59:39;;;;;;;12.63;9.17;;;4.80;1.00;;;;;;5132451;27;20457;-68
2022/03/12 01:02:07;;;;;;;14.43;9.80;;;4.80;1.00;;;;;;5132818;27;20535;-67
2022/03/12 01:04:35;;;;;;;15.70;8.80;;;4.80;1.00;;;;;;5132307;27;20450;-67
2022/03/12 01:07:02;;;;;;;14.53;9.57;;;4.80;1.00;;;;;;5119948;27;20474;-68
2022/03/12 01:09:30;;;;;;;16.00;9.50;;;4.80;1.00;;;;;;5132372;27;21018;-68
2022/03/12 01:11:57;;;;;;;13.47;9.73;;;5.00;1.00;;;;;;5132696;27;20451;-68
2022/03/12 01:14:24;;;;;;;11.40;9.00;;;5.00;1.00;;;;;;5133353;27;20481;-68
2022/03/12 01:16:51;;;;;;;13.70;10.30;;;5.00;1.00;;;;;;5133454;27;20453;-68
2022/03/12 01:19:18;;;;;;;15.20;9.53;;;5.00;1.00;;;;;;5133253;27;20535;-68
2022/03/12 01:21:46;;;;;;;14.87;10.17;;;5.00;1.00;;;;;;5132359;27;20490;-68
2022/03/12 01:24:13;;;;;;;11.87;8.97;;;4.90;1.00;;;;;;5133298;27;20486;-68
2022/03/12 01:26:40;;;;;;;15.17;9.43;;;4.80;1.00;;;;;;5132779;27;20444;-67
2022/03/12 01:29:08;;;;;;;17.70;10.70;;;4.70;1.00;;;;;;5132789;27;20454;-68
2022/03/12 01:31:35;;;;;;;12.03;8.90;;;4.70;1.00;;;;;;5132179;27;20852;-67
2022/03/12 01:34:03;;;;;;;20.10;10.07;;;4.70;1.00;;;;;;5132455;27;20510;-68
2022/03/12 01:36:30;;;;;;;14.33;9.77;;;4.80;1.00;;;;;;5131925;27;20510;-68
2022/03/12 01:39:01;;;;;;;17.67;9.67;;;4.90;1.00;;;;;;5132362;27;20458;-68
2022/03/12 01:41:30;;;;;;;15.27;11.40;;;5.00;1.00;;;;;;5131483;27;20435;-68
2022/03/12 01:43:59;;;;;;;16.63;9.57;;;4.80;1.00;;;;;;5132282;27;20526;-68
2022/03/12 01:46:34;;;;;;;12.90;8.80;;;4.80;1.00;;;;;;5131954;27;20455;-68
2022/03/12 01:49:05;;;;;;;13.07;9.60;;;4.90;1.00;;;;;;5132082;27;20962;-67
2022/03/12 01:51:33;;;;;;;16.73;9.17;;;5.10;1.00;;;;;;5131187;27;20455;-68
2022/03/12 01:54:03;;;;;;;14.10;8.10;;;5.00;1.00;;;;;;5132241;27;20484;-68
2022/03/12 01:56:30;;;;;;;15.97;9.37;;;5.10;1.00;;;;;;5132285;27;20527;-68
2022/03/12 01:58:59;;;;;;;17.07;10.00;;;5.20;1.00;;;;;;5118729;27;20444;-67
2022/03/12 02:01:27;;;;;;;13.90;9.67;;;5.40;1.00;;;;;;5131631;27;20576;-67
2022/03/12 02:03:55;;;;;;;12.63;8.50;;;5.30;1.00;;;;;;5132208;27;20547;-67
2022/03/12 02:06:23;;;;;;;12.70;9.13;;;5.40;1.00;;;;;;5132693;27;20480;-67
2022/03/12 02:08:58;;;;;;;12.33;8.60;;;5.30;1.00;;;;;;5131686;27;20459;-67
2022/03/12 02:11:28;;;;;;;11.87;8.23;;;5.40;1.00;;;;;;5131602;27;20455;-67
2022/03/12 02:14:00;;;;;;;11.90;9.07;;;5.30;1.00;;;;;;5132045;27;20980;-66
2022/03/12 02:16:27;;;;;;;13.90;8.43;;;5.40;1.00;;;;;;5131320;27;20446;-67
2022/03/12 02:18:54;;;;;;;12.73;8.67;;;5.60;1.00;;;;;;5131892;27;20533;-67
2022/03/12 02:21:33;;;;;;;10.37;7.83;;;5.80;1.00;;;;;;5131464;27;20484;-67
2022/03/12 02:24:03;;;;;;;18.20;8.30;;;5.70;1.00;;;;;;5132338;27;20461;-67
2022/03/12 02:26:30;;;;;;;16.33;8.87;;;5.70;1.00;;;;;;5131593;27;20531;-67
2022/03/12 02:28:58;;;;;;;11.17;8.10;;;5.90;1.00;;;;;;5132096;27;20452;-67
2022/03/12 02:31:26;;;;;;;13.10;8.50;;;5.90;1.00;;;;;;5131606;27;20446;-67
2022/03/12 02:33:54;;;;;;;14.00;8.90;;;6.00;1.00;;;;;;5131349;28;20478;-67
2022/03/12 02:36:26;;;;;;;15.43;9.03;;;5.70;1.00;;;;;;5132045;28;20449;-67
2022/03/12 02:38:54;;;;;;;12.50;7.93;;;5.60;1.00;;;;;;5131969;28;20536;-67
2022/03/12 02:41:24;;;;;;;12.03;8.10;;;5.40;1.00;;;;;;5131246;28;20939;-66
2022/03/12 02:43:51;;;;;;;13.30;8.13;;;5.20;1.00;;;;;;5131824;28;20462;-67
2022/03/12 02:46:19;;;;;;;10.40;7.77;;;5.20;1.00;;;;;;5131719;28;20849;-66
2022/03/12 02:48:50;;;;;;;12.67;8.43;;;5.20;1.00;;;;;;5130569;28;20978;-67
2022/03/12 02:51:17;;;;;;;13.30;8.47;;;5.20;1.00;;;;;;5131423;28;20465;-67
2022/03/12 02:53:45;;;;;;;14.77;8.60;;;5.30;1.00;;;;;;5131175;28;20631;-67
2022/03/12 02:56:12;;;;;;;9.30;7.30;;;5.20;1.00;;;;;;5131931;28;20867;-67
2022/03/12 02:58:41;;;;;;;18.23;8.00;;;5.10;1.00;;;;;;5130795;28;20460;-67
2022/03/12 03:01:13;;;;;;;12.87;8.60;;;5.00;1.00;;;;;;5131240;28;20494;-67
2022/03/12 03:03:41;;;;;;;13.57;8.37;;;5.20;1.00;;;;;;5130402;28;20439;-67
2022/03/12 03:06:09;;;;;;;8.87;7.30;;;5.30;1.00;;;;;;5131743;28;20465;-67
2022/03/12 03:08:39;;;;;;;17.53;8.97;;;5.30;1.00;;;;;;5130958;28;20451;-68
2022/03/12 03:11:13;;;;;;;11.10;7.53;;;5.40;1.00;;;;;;5130970;28;20932;-67
2022/03/12 03:13:44;;;;;;;13.40;8.73;;;5.30;1.00;;;;;;5130757;28;20480;-67
2022/03/12 03:16:21;;;;;;;9.83;7.57;;;5.10;1.00;;;;;;5131121;28;20495;-68
2022/03/12 03:18:53;;;;;;;11.90;7.37;;;5.20;1.00;;;;;;5130965;28;20433;-68
2022/03/12 03:21:21;;;;;;;14.47;8.23;;;5.20;1.00;;;;;;5132308;27;20568;-66
2022/03/12 03:23:48;;;;;;;11.60;7.90;;;5.30;1.00;;;;;;5135638;27;20445;-68
2022/03/12 03:26:19;;;;;;;10.90;7.10;;;5.30;1.00;;;;;;5135612;27;20448;-68
2022/03/12 03:28:48;;;;;;;11.40;7.63;;;5.30;1.00;;;;;;5135222;27;20448;-68
2022/03/12 03:31:16;;;;;;;12.00;8.47;;;5.20;1.00;;;;;;5135135;27;20552;-66
2022/03/12 03:33:43;;;;;;;14.47;8.13;;;5.30;1.00;;;;;;5134603;27;20809;-67
2022/03/12 03:36:09;;;;;;;13.90;8.10;;;5.30;1.00;;;;;;5134997;27;20461;-66
2022/03/12 03:38:37;;;;;;;9.70;7.50;;;5.40;1.00;;;;;;5134370;27;20492;-67
2022/03/12 03:41:03;;;;;;;10.57;7.80;;;5.40;1.00;;;;;;5121242;27;20440;-67
2022/03/12 03:43:30;;;;;;;10.30;8.50;;;5.30;1.00;;;;;;5134076;27;20451;-67
2022/03/12 03:45:59;;;;;;;10.80;7.30;;;5.20;1.00;;;;;;5135065;27;20474;-67
2022/03/12 03:48:26;;;;;;;11.50;7.73;;;5.10;1.00;;;;;;5134566;27;20536;-67
2022/03/12 03:50:54;;;;;;;11.57;8.37;;;5.20;1.00;;;;;;5134055;27;20480;-67
2022/03/12 03:53:24;;;;;;;12.23;8.03;;;5.10;1.00;;;;;;5134758;27;20567;-66
2022/03/12 03:55:54;;;;;;;9.93;8.03;;;5.00;1.00;;;;;;5134526;27;20480;-67
2022/03/12 03:58:21;;;;;;;13.43;8.30;;;5.00;1.00;;;;;;5134958;27;20505;-68
2022/03/12 04:00:58;;;;;;;13.80;7.60;;;4.90;1.00;;;;;;5133201;27;20448;-67
2022/03/12 04:03:32;;;;;;;11.47;7.83;;;4.80;1.00;;;;;;5134352;27;20524;-68
2022/03/12 04:06:00;;;;;;;9.40;7.67;;;4.80;1.00;;;;;;5134867;27;20431;-68
2022/03/12 04:08:27;;;;;;;13.67;8.20;;;4.80;1.00;;;;;;5134347;27;20487;-67
2022/03/12 04:10:53;;;;;;;11.80;8.23;;;4.90;1.00;;;;;;5134534;27;20806;-66
2022/03/12 04:13:22;;;;;;;9.67;7.13;;;4.80;1.00;;;;;;5134721;27;20496;-68
2022/03/12 04:15:51;;;;;;;10.23;7.70;;;4.60;1.00;;;;;;5134383;27;20926;-67
2022/03/12 04:18:21;;;;;;;11.73;7.67;;;4.50;1.00;;;;;;5134556;27;20469;-66
2022/03/12 04:20:50;;;;;;;10.07;7.00;;;4.70;1.00;;;;;;5132991;27;20803;-66
2022/03/12 04:23:21;;;;;;;10.37;6.90;;;4.60;1.00;;;;;;5136536;27;20435;-68
2022/03/12 04:25:48;;;;;;;9.60;7.00;;;4.50;1.00;;;;;;5133626;27;20529;-67
2022/03/12 04:28:15;;;;;;;11.97;7.67;;;4.40;1.00;;;;;;5134326;27;20485;-68
2022/03/12 04:30:42;;;;;;;11.30;6.97;;;4.40;1.00;;;;;;5133173;27;20450;-68
2022/03/12 04:33:11;;;;;;;13.60;8.03;;;4.50;1.00;;;;;;5133685;27;20532;-67
2022/03/12 04:35:39;;;;;;;11.20;6.90;;;4.60;1.00;;;;;;5133247;27;20537;-68
2022/03/12 04:38:09;;;;;;;11.17;7.60;;;4.90;1.00;;;;;;5133737;27;20454;-68
2022/03/12 04:40:38;;;;;;;9.17;7.30;;;4.90;1.00;;;;;;5132799;27;20460;-67
2022/03/12 04:43:07;;;;;;;10.47;6.63;;;5.00;1.00;;;;;;5133865;27;20864;-67
2022/03/12 04:45:35;;;;;;;10.23;7.63;;;4.90;1.00;;;;;;5133573;27;20853;-67
2022/03/12 04:48:03;;;;;;;11.00;7.60;;;4.80;1.00;;;;;;5134161;27;20447;-68
2022/03/12 04:50:30;;;;;;;14.63;7.50;;;4.80;1.00;;;;;;5132537;27;20447;-67
2022/03/12 04:52:59;;;;;;;11.20;7.37;;;4.90;1.00;;;;;;5133572;27;20467;-67
2022/03/12 04:55:29;;;;;;;9.10;7.40;;;4.90;1.00;;;;;;5133299;27;20450;-67
2022/03/12 04:57:56;;;;;;;10.63;7.73;;;4.60;1.00;;;;;;5133955;27;20452;-67
2022/03/12 05:00:25;;;;;;;10.83;7.07;;;4.50;1.00;;;;;;5133517;27;20449;-68
2022/03/12 05:02:54;;;;;;;9.87;6.90;;;4.50;1.00;;;;;;5133880;27;20450;-67
2022/03/12 05:05:22;;;;;;;11.60;8.40;;;4.60;1.00;;;;;;5133098;27;20437;-68
2022/03/12 05:07:50;;;;;;;11.30;7.23;;;4.60;1.00;;;;;;5133395;27;20500;-67
2022/03/12 05:10:18;;;;;;;7.57;6.47;;;4.80;1.00;;;;;;5119822;27;20444;-67
2022/03/12 05:12:48;;;;;;;10.93;7.03;;;4.90;1.00;;;;;;5132509;27;20497;-68
2022/03/12 05:15:17;;;;;;;12.70;7.30;;;4.60;1.00;;;;;;5133147;27;20470;-67
2022/03/12 05:17:47;;;;;;;15.00;8.37;;;4.60;1.00;;;;;;5132393;27;21308;-67
2022/03/12 05:20:20;;;;;;;10.23;7.50;;;4.80;1.00;;;;;;5132792;27;20447;-67
2022/03/12 05:22:47;;;;;;;10.03;7.50;;;4.80;1.00;;;;;;5132379;27;20941;-67
2022/03/12 05:25:15;;;;;;;12.93;7.10;;;4.70;1.00;;;;;;5132982;27;20933;-68
2022/03/12 05:27:42;;;;;;;17.73;7.77;;;4.70;1.00;;;;;;5132721;27;20460;-68
2022/03/12 05:30:12;;;;;;;13.07;7.47;;;4.60;1.00;;;;;;5132647;27;20453;-67
2022/03/12 05:32:38;;;;;;;19.87;7.37;;;4.70;1.00;;;;;;5132678;27;20439;-67
2022/03/12 05:35:07;;;;;;;10.97;7.07;;;4.70;1.00;;;;;;5133051;27;20478;-68
2022/03/12 05:37:36;;;;;;;10.30;6.87;;;4.80;1.00;;;;;;5132175;27;20449;-67
2022/03/12 05:40:04;;;;;;;10.60;7.27;;;4.70;1.00;;;;;;5132211;27;21030;-67
2022/03/12 05:42:34;;;;;;;10.00;7.10;;;4.70;1.00;;;;;;5132020;27;20947;-67
2022/03/12 05:45:02;;;;;;;12.97;7.10;;;4.90;1.00;;;;;;5132188;27;20451;-67
2022/03/12 05:47:36;;;;;;;7.57;6.70;;;5.00;1.00;;;;;;5132231;27;20501;-67
2022/03/12 05:50:03;;;;;;;9.50;7.03;;;5.00;1.00;;;;;;5132401;27;20497;-67
2022/03/12 05:52:30;;;;;;;9.67;7.03;;;4.70;1.00;;;;;;5118352;27;20503;-67
2022/03/12 05:54:57;;;;;;;10.67;7.57;;;4.80;1.00;;;;;;5132622;27;20480;-68
2022/03/12 05:57:24;;;;;;;15.83;6.93;;;4.80;1.00;;;;;;5132568;27;20931;-68
2022/03/12 05:59:51;;;;;;;8.90;6.93;;;4.80;1.00;;;;;;5132343;27;20449;-67
2022/03/12 06:02:18;;;;;;;12.00;7.50;;;4.80;1.00;;;;;;5132578;27;20479;-68
2022/03/12 06:04:46;;;;;;;9.60;6.30;;;5.00;1.00;;;;;;5131199;27;21114;-68
2022/03/12 06:07:14;;;;;;;9.47;7.20;;;5.30;1.00;;;;;;5132477;27;20440;-68
2022/03/12 06:09:41;;;;;;;9.37;7.20;;;5.40;1.00;;;;;;5131247;27;20501;-68
2022/03/12 06:12:17;;;;;;;10.50;7.70;;;5.10;1.00;;;;;;5132669;27;20499;-68
2022/03/12 06:14:55;;;;;;;9.83;7.40;;;5.00;1.00;;;;;;5131878;27;20718;-68
2022/03/12 06:17:24;;;;;;;7.73;6.60;;;5.00;1.00;;;;;;5132793;27;20435;-68
2022/03/12 06:19:52;;;;;;;10.30;7.40;;;5.10;1.00;;;;;;5131886;27;20448;-68
2022/03/12 06:22:20;;;;;;;15.23;7.20;;;5.20;1.00;;;;;;5131830;27;20478;-68
2022/03/12 06:24:48;;;;;;;9.87;6.57;;;5.30;1.00;;;;;;5131713;27;20487;-68
2022/03/12 06:27:17;;;;;;;11.30;6.90;;;5.20;1.00;;;;;;5131973;27;20450;-68
2022/03/12 06:29:46;;;;;;;8.93;6.43;;;5.10;1.00;;;;;;5131061;27;20450;-68
2022/03/12 06:32:14;;;;;;;11.33;7.20;;;5.10;1.00;;;;;;5132202;27;20437;-68
2022/03/12 06:34:41;;;;;;;11.93;7.30;;;5.20;1.00;;;;;;5128429;28;21078;-67
2022/03/12 06:37:10;;;;;;;9.30;6.17;;;5.10;1.00;;;;;;5131960;28;20445;-67
2022/03/12 06:39:37;;;;;;;8.80;6.50;;;5.10;1.00;;;;;;5130727;28;20506;-67
2022/03/12 06:42:05;;;;;;;10.20;6.53;;;5.20;1.00;;;;;;5131768;28;20469;-69
2022/03/12 06:44:33;;;;;;;8.73;6.10;;;5.10;1.00;;;;;;5131586;28;20456;-67
2022/03/12 06:47:01;;;;;;;8.03;6.80;;;5.40;1.00;;;;;;5131401;28;20474;-67
2022/03/12 06:49:28;;;;;;;9.53;6.70;;;5.20;1.00;;;;;;5131221;28;20475;-67
2022/03/12 06:51:55;;;;;;;10.33;6.30;;;5.10;1.00;;;;;;5131358;28;20465;-67
2022/03/12 06:54:25;;;;;;;11.50;6.43;;;5.00;1.00;;;;;;5132291;28;20573;-67
2022/03/12 06:56:53;;;;;;;12.83;6.57;;;5.00;1.00;;;;;;5136131;27;20435;-67
2022/03/12 06:59:20;;;;;;;11.70;6.60;;;5.10;1.00;;;;;;5136509;27;20469;-67
2022/03/12 07:01:47;;;;;;;9.77;7.10;;;4.90;1.00;;;;;;5135100;27;20869;-67
2022/03/12 07:04:14;;;;;;;10.67;6.90;;;4.90;1.00;;;;;;5135753;27;20802;-68
2022/03/12 07:06:41;;;;;;;15.13;7.10;;;5.00;1.00;;;;;;5134887;27;20476;-67
2022/03/12 07:09:07;;;;;;;8.70;7.10;;;5.00;1.00;;;;;;5136070;27;20449;-68
2022/03/12 07:11:36;;;;;;;8.37;6.57;;;5.00;1.00;;;;;;5134852;27;20447;-67
2022/03/12 07:14:04;;;;;;;8.70;6.83;;;5.00;1.00;;;;;;5135688;27;20483;-67
2022/03/12 07:16:31;;;;;;;15.37;6.77;;;5.00;1.00;;;;;;5134848;27;20454;-67
2022/03/12 07:18:58;;;;;;;9.50;6.30;;;5.10;1.00;;;;;;5135798;27;20523;-67
2022/03/12 07:21:25;;;;;;;10.37;6.40;;;5.20;1.00;;;;;;5134145;27;20506;-67
2022/03/12 07:23:52;;;;;;;9.10;6.83;;;5.40;1.00;;;;;;5135767;27;20478;-67
2022/03/12 07:26:20;;;;;;;9.80;6.60;;;5.50;1.00;;;;;;5135503;27;20446;-67
2022/03/12 07:28:48;;;;;;;11.53;7.37;;;5.50;1.00;;;;;;5134498;27;20631;-68
2022/03/12 07:31:15;;;;;;;10.50;6.70;;;5.60;1.00;;;;;;5135073;27;20449;-67
2022/03/12 07:33:43;;;;;;;8.00;5.90;;;5.50;1.00;;;;;;5134688;27;20483;-68
2022/03/12 07:36:10;;;;;;;12.00;6.90;;;5.60;1.00;;;;;;5135348;27;20491;-68
2022/03/12 07:38:36;;;;;;;9.67;7.00;;;5.70;1.00;;;;;;5134827;27;20455;-67
2022/03/12 07:41:04;;;;;;;11.60;7.40;;;5.80;1.00;;;;;;5134963;27;20453;-68
2022/03/12 07:43:30;;;;;;;10.87;7.40;;;6.00;1.00;;;;;;5134547;27;20506;-67
2022/03/12 07:45:59;;;;;;;14.43;7.53;;;6.10;1.00;;;;;;5135156;27;20447;-68
2022/03/12 07:48:26;;;;;;;10.67;7.27;;;6.10;1.00;;;;;;5134630;27;20910;-67
2022/03/12 07:50:53;;;;;;;9.63;7.83;;;6.30;1.00;;;;;;5134743;27;20919;-67
2022/03/12 07:53:20;;;;;;;9.70;7.50;;;6.30;1.00;;;;;;5134832;27;20458;-68
2022/03/12 07:55:47;;;;;;;9.83;6.70;;;6.30;1.00;;;;;;5134342;27;20489;-67
2022/03/12 07:58:15;;;;;;;12.93;7.13;;;6.30;1.00;;;;;;5135024;27;20454;-67
2022/03/12 08:00:42;;;;;;;12.27;7.50;;;6.40;1.00;;;;;;5133945;27;20458;-67
2022/03/12 08:03:11;;;;;;;8.30;7.50;;;6.50;1.00;;;;;;5134392;27;20946;-67
2022/03/12 08:05:38;;;;;;;11.73;8.40;;;6.40;1.00;;;;;;5133743;27;20470;-67
2022/03/12 08:08:05;;;;;;;14.97;8.60;;;6.40;1.00;;;;;;5133226;27;20493;-67
2022/03/12 08:11:24;;;;;;;11.97;8.07;;;6.50;1.00;;;;;;5133597;27;20798;-68
2022/03/12 08:13:21;;;;;;;12.00;7.60;;;6.80;1.00;;;;;;5134249;27;20444;-68
2022/03/12 08:15:48;;;;;;;10.27;7.83;;;;;;;;;;5133944;27;20569;-67
2022/03/12 08:18:17;;;;;;;11.17;7.33;;;;;;;;;;5134379;27;20850;-67
2022/03/12 08:20:45;;;;;;;17.87;9.40;;;;;;;;;;5133271;27;20454;-67
2022/03/12 08:23:13;;;;;;;14.20;8.40;;;;;;;;;;5134138;27;20470;-67
2022/03/12 08:25:40;;;;;;;9.30;7.30;;;;;;;;;;5133993;27;20478;-68
2022/03/12 08:28:07;;;;;;;14.40;8.20;;;;;;;;;;5134122;27;20450;-68
2022/03/12 08:30:35;;;;;;;13.60;8.87;;;;;;;;;;5133124;27;20482;-68
2022/03/12 08:33:02;;;;;;;14.60;8.23;;;;;;;;;;5133926;27;20454;-67
2022/03/12 08:35:31;;;;;;;12.03;9.13;;;;;;;;;;5133122;27;20482;-68
2022/03/12 08:37:58;;;;;;;11.47;8.37;;;;;;;;;;5134188;27;20470;-68
2022/03/12 08:40:26;;;;;;;14.20;9.00;;;;;;;;;;5133262;27;20548;-68
2022/03/12 08:42:53;;;;;;;13.47;8.83;;;;;;;;;;5133979;27;20946;-68
2022/03/12 08:45:20;;;;;;;11.13;8.30;;;;;;;;;;5133829;27;20474;-67
2022/03/12 08:47:48;;;;;;;15.73;8.70;;;;;;;;;;5133382;27;20541;-67
2022/03/12 08:50:15;;;;;;;12.77;8.43;;;;;;;;;;5133354;27;20451;-68
2022/03/12 08:52:44;;;;;;;11.50;8.43;;;;;;;;;;5133319;27;20447;-68
2022/03/12 08:55:12;;;;;;;16.30;8.63;;;;;;;;;;5133201;27;20513;-67
2022/03/12 08:57:39;;;;;;;11.07;7.83;;;;;;;;;;5133074;27;20503;-68
2022/03/12 09:00:08;;;;;;;15.80;9.77;;;;;;;;;;5133553;27;20818;-67
2022/03/12 09:02:35;;;;;;;14.07;9.27;;;;;;;;;;5132430;27;20443;-68
2022/03/12 09:05:04;;;;;;;11.87;8.23;;;;;;;;;;5132886;27;20507;-68
2022/03/12 09:07:31;;;;;;;16.17;9.80;;;;;;;;;;5132912;27;20462;-68
2022/03/12 09:10:00;;;;;;;14.73;9.33;;;;;;;;;;5132945;27;20935;-68
2022/03/12 09:12:27;;;;;;;12.03;8.97;;;;;;;;;;5133236;27;20822;-68
2022/03/12 09:14:54;;;;;;;14.43;11.07;;;;;;;;;;5133439;27;20540;-69
2022/03/12 09:17:22;;;;;;;15.10;9.80;;;;;;;;;;5133603;27;20449;-68
2022/03/12 09:19:49;;;;;;;15.70;9.70;;;;;;;;;;5132297;27;20443;-68
2022/03/12 09:22:16;;;;;;;15.47;9.10;;;;;;;;;;5133199;27;20500;-67
2022/03/12 09:24:43;;;;;;;14.10;8.93;;;;;;;;;;5132561;27;20443;-67
2022/03/12 09:27:12;;;;;;;13.60;9.93;;;;;;;;;;5133352;27;20470;-67
2022/03/12 09:29:39;;;;;;;13.43;9.50;;;;;;;;;;5132107;27;20522;-67
2022/03/12 09:32:08;;;;;;;13.57;10.13;;;;;;;;;;5132898;27;20439;-67
2022/03/12 09:34:35;;;;;;;13.50;9.20;;;;;;;;;;5132023;27;20447;-68
2022/03/12 09:37:02;;;;;;;12.73;9.20;;;;;;;;;;5132755;27;20446;-68
2022/03/12 09:39:30;;;;;;;12.70;10.30;;;;;;;;;;5118234;27;20532;-67
2022/03/12 09:41:57;;;;;;;15.13;10.00;;;;;;;;;;5133041;27;20527;-67
2022/03/12 09:44:26;;;;;;;14.20;10.80;;;;;;;;;;5133034;27;20470;-67
2022/03/12 09:46:53;;;;;;;14.30;10.93;;;;;;;;;;5133137;27;20450;-67
2022/03/12 09:49:20;;;;;;;17.10;11.63;;;;;;;;;;5132590;27;20525;-68
2022/03/12 09:51:48;;;;;;;16.13;10.23;;;;;;;;;;5131905;27;20467;-68
2022/03/12 09:54:17;;;;;;;13.80;9.70;;;;;;;;;;5132453;27;20446;-68
2022/03/12 09:56:45;;;;;;;12.90;9.70;;;;;;;;;;5131874;27;20840;-69
2022/03/12 09:59:12;;;;;;;13.13;9.53;;;;;;;;;;5132455;27;20518;-68
2022/03/12 10:01:41;;;;;;;14.07;10.83;;;;;;;;;;5131712;27;20447;-68
2022/03/12 10:04:08;;;;;;;13.80;9.77;;;;;;;;;;5132515;27;20478;-69
2022/03/12 10:06:35;;;;;;;16.10;10.27;;;;;;;;;;5131332;27;20442;-68
2022/03/12 10:09:04;;;;;;;11.90;9.60;;;;;;;;;;5132418;27;20477;-67
2022/03/12 10:11:33;;;;;;;18.30;10.93;;;;;;;;;;5131358;27;20442;-67
2022/03/12 10:14:00;;;;;;;14.60;10.90;;;;;;;;;;5132470;27;20442;-67
2022/03/12 10:16:29;;;;;;;16.13;10.70;;;;;;;;;;5131432;27;20558;-67
2022/03/12 10:18:59;;;;;;;11.87;9.67;;;;;;;;;;5132118;27;20450;-67
2022/03/12 10:21:27;;;;;;;15.13;10.20;;;;;;;;;;5131073;27;20494;-68
2022/03/12 10:23:54;;;;;;;16.37;10.33;;;;;;;;;;5132274;27;21189;-67
2022/03/12 10:26:21;;;;;;;18.90;11.30;;;;;;;;;;5132616;27;20450;-67
2022/03/12 10:28:48;;;;;;;19.73;9.87;;;;;;;;;;5131913;27;20470;-67
2022/03/12 10:31:19;;;;;;;13.53;11.57;;;;;;;;;;5131099;27;21018;-68
2022/03/12 10:33:47;;;;;;;15.80;10.00;;;;;;;;;;5131430;27;20451;-68
2022/03/12 10:36:16;;;;;;;12.67;9.23;;;;;;;;;;5131901;27;20790;-67
2022/03/12 10:38:44;;;;;;;16.30;11.63;;;;;;;;;;5131505;28;20450;-67
2022/03/12 10:41:11;;;;;;;16.43;10.13;;;;;;;;;;5131773;28;20850;-67
2022/03/12 10:43:48;;;;;;;18.20;11.37;;;;;;;;;;5131002;28;20454;-68
2022/03/12 10:46:20;;;;;;;16.20;10.30;;;;;;;;;;5132319;28;20446;-67
2022/03/12 10:48:49;;;;;;;14.90;10.07;;;;;;;;;;5131658;28;20454;-68
2022/03/12 10:51:19;;;;;;;13.63;10.70;;;;;;;;;;5131485;28;20450;-68
2022/03/12 10:53:49;;;;;;;15.57;10.20;;;;;;;;;;5130906;28;20474;-68
2022/03/12 10:56:16;;;;;;;12.30;10.00;;;;;;;;;;5131410;28;21019;-67
2022/03/12 10:58:43;;;;;;;18.70;11.10;;;;;;;;;;5130632;28;20434;-67
2022/03/12 11:01:10;;;;;;;13.90;10.17;;;;;;;;;;5131236;28;20474;-67
2022/03/12 11:03:38;;;;;;;14.47;10.47;;;;;;;;;;5131254;28;20545;-68
2022/03/12 11:06:06;;;;;;;13.43;10.30;;;;;;;;;;5132028;28;20470;-67
2022/03/12 11:08:35;;;;;;;16.00;11.97;;;;;;;;;;5131384;28;20475;-67
2022/03/12 11:11:06;;;;;;;13.73;10.50;;;;;;;;;;5131262;28;20446;-67
2022/03/12 11:13:43;;;;;;;15.67;11.63;;;;;;;;;;5131445;28;20435;-67
2022/03/12 11:16:14;;;;;;;13.90;10.80;;;;;;;;;;5131623;28;20477;-67
2022/03/12 11:18:59;;;;;;;13.57;10.17;;;;;;;;;;5130979;28;20488;-67
2022/03/12 11:21:27;;;;;;;12.23;10.40;;;;;;;;;;5130110;28;20624;-68
2022/03/12 11:23:57;;;;;;;13.97;10.63;;;;;;;;;;5131442;28;20521;-67
2022/03/12 11:26:25;;;;;;;16.83;10.80;;;;;;;;;;5131071;28;21017;-67
2022/03/12 11:28:56;;;;;;;12.40;9.60;;;;;;;;;;5131537;28;20458;-67
2022/03/12 11:31:38;;;;;;;17.23;11.83;;;;;;;;;;5118079;28;20445;-67
2022/03/12 11:34:14;;;;;;;14.00;10.50;;;;;;;;;;5131171;28;20443;-67
2022/03/12 11:36:42;;;;;;;16.37;10.50;;;;;;;;;;5130675;28;20469;-66
2022/03/12 11:39:11;;;;;;;13.47;11.00;;;;;;;;;;5131117;28;20456;-68
2022/03/12 11:41:39;;;;;;;16.00;10.90;;;;;;;;;;5130607;27;20487;-67
2022/03/12 11:44:09;;;;;;;14.00;12.00;;;;;;;;;;5134770;27;20494;-67
2022/03/12 11:46:36;;;;;;;14.20;10.20;;;;;;;;;;5135048;27;20447;-68
2022/03/12 11:49:05;;;;;;;12.13;9.97;;;;;;;;;;5134959;27;20515;-68
2022/03/12 11:51:32;;;;;;;16.07;10.20;;;;;;;;;;5134473;27;20490;-68
2022/03/12 11:54:01;;;;;;;13.80;9.10;;;;;;;;;;5135133;27;20485;-68
2022/03/12 11:56:32;;;;;;;10.93;8.77;;;;;;;;;;5134645;27;20583;-68
2022/03/12 11:58:59;;;;;;;13.70;10.23;;;;;;;;;;5120778;27;20447;-68
2022/03/12 12:01:26;;;;;;;14.37;9.70;;;;;;;;;;5134240;27;20492;-68
2022/03/12 12:03:53;;;;;;;10.43;8.50;;;;;;;;;;5134664;27;20946;-68
2022/03/12 12:06:21;;;;;;;10.77;8.10;;;;;;;;;;5134411;27;20453;-68
2022/03/12 12:08:49;;;;;;;10.60;8.67;;;;;;;;;;5134235;27;20839;-68
2022/03/12 12:11:18;;;;;;;14.00;8.40;;;;;;;;;;5133983;27;20457;-68
2022/03/12 12:13:47;;;;;;;11.37;8.60;;;;;;;;;;5133731;27;21005;-67
2022/03/12 12:16:16;;;;;;;12.80;8.80;;;;;;;;;;5134298;27;21045;-67
2022/03/12 12:18:43;;;;;;;9.03;7.83;;;;;;;;;;5134007;27;20453;-68
2022/03/12 12:21:15;;;;;;;9.23;7.90;;;;;;;;;;5133550;27;20557;-67
2022/03/12 12:23:42;;;;;;;12.17;8.03;;;;;;;;;;5133480;27;20484;-68
2022/03/12 12:26:10;;;;;;;12.90;8.83;;;;;;;;;;5134135;27;20478;-67
2022/03/12 12:28:48;;;;;;;9.17;7.60;;;;;;;;;;5133948;27;20526;-68
2022/03/12 12:31:19;;;;;;;9.37;7.70;;;;;;;;;;5134073;27;20864;-68
2022/03/12 12:33:46;;;;;;;11.93;7.53;;;;;;;;;;5134036;27;20478;-67
2022/03/12 12:36:14;;;;;;;11.33;7.67;;;;;;;;;;5134165;27;20479;-67
2022/03/12 12:38:43;;;;;;;9.10;7.93;;;;;;;;;;5133597;27;20855;-67
2022/03/12 12:41:11;;;;;;;10.33;8.30;;;;;;;;;;5120199;27;20811;-68
2022/03/12 12:43:39;;;;;;;10.67;8.10;;;;;;;;;;5133380;27;20490;-68
2022/03/12 12:46:09;;;;;;;9.73;8.00;;;;;;;;;;5120509;27;20478;-68
2022/03/12 12:48:40;;;;;;;10.47;8.63;;;;;;;;;;5133363;27;20874;-68
2022/03/12 12:51:10;;;;;;;11.00;8.47;;;;;;;;;;5133214;27;20855;-67
2022/03/12 12:53:38;;;;;;;10.80;8.50;;;;;;;;;;5133207;27;20447;-67
2022/03/12 12:56:25;;;;;;;12.10;9.67;;;;;;;;;;5133870;27;20542;-68
2022/03/12 12:59:06;;;;;;;14.27;10.23;;;;;;;;;;5133835;27;20438;-68
2022/03/12 13:01:45;;;;;;;16.67;11.90;;;;;;;;;;5133032;27;20865;-68
2022/03/12 13:04:13;;;;;;;21.30;12.63;;;;;;;;;;5133549;27;20430;-68
2022/03/12 13:06:46;;;;;;;12.33;9.73;;;;;;;;;;5132040;27;20446;-68
2022/03/12 13:09:14;;;;;;;11.37;10.07;;;;;;;;;;5133187;27;20546;-67
2022/03/12 13:11:51;;;;;;;15.80;8.60;;;;;;;;;;5132953;27;20453;-67
2022/03/12 13:14:19;;;;;;;11.10;8.57;;;;;;;;;;5133715;27;20496;-67
2022/03/12 13:16:51;;;;;;;10.10;8.93;;;;;;;;;;5132418;27;20490;-67
2022/03/12 13:19:41;;;;;;;16.30;8.73;;;;;;;;;;5132679;27;20443;-67
2022/03/12 13:22:09;;;;;;;11.50;9.50;;;;;;;;;;5133149;27;20814;-67
2022/03/12 13:24:43;;;;;;;14.10;10.30;;;;;;;;;;5132649;27;20568;-67
2022/03/12 13:27:17;;;;;;;13.37;10.00;;;;;;;;;;5132962;27;20434;-67
2022/03/12 13:29:44;;;;;;;12.27;9.63;;;;;;;;;;5131985;27;20790;-67
2022/03/12 13:32:17;;;;;;;11.77;9.00;;;;;;;;;;5133247;27;20482;-67
2022/03/12 13:34:45;;;;;;;11.50;9.20;;;;;;;;;;5130532;27;20443;-68
2022/03/12 13:37:12;;;;;;;10.63;8.30;;;;;;;;;;5132722;27;20532;-68